sensor_id;sensor_type;location;lat;lon;timestamp;P1;durP1;ratioP1;P2;durP2;ratioP2
39078;SDS011;24829;49.208;12.080;2023-08-24T00:02:05;9.27;;;4.50;;
39078;SDS011;24829;49.208;12.080;2023-08-24T00:04:31;9.32;;;5.75;;
39078;SDS011;24829;49.208;12.080;2023-08-24T00:06:57;9.15;;;5.85;;
39078;SDS011;24829;49.208;12.080;2023-08-24T00:09:23;6.55;;;5.20;;
39078;SDS011;24829;49.208;12.080;2023-08-24T00:11:48;9.32;;;5.28;;
39078;SDS011;24829;49.208;12.080;2023-08-24T00:14:15;8.75;;;5.13;;
39078;SDS011;24829;49.208;12.080;2023-08-24T00:16:40;9.10;;;5.07;;
39078;SDS011;24829;49.208;12.080;2023-08-24T00:19:06;10.43;;;5.57;;
39078;SDS011;24829;49.208;12.080;2023-08-24T00:21:32;14.95;;;6.00;;
39078;SDS011;24829;49.208;12.080;2023-08-24T00:23:58;7.45;;;4.82;;
39078;SDS011;24829;49.208;12.080;2023-08-24T00:26:24;10.50;;;5.85;;
39078;SDS011;24829;49.208;12.080;2023-08-24T00:28:50;5.65;;;5.05;;
39078;SDS011;24829;49.208;12.080;2023-08-24T00:31:17;11.70;;;4.90;;
39078;SDS011;24829;49.208;12.080;2023-08-24T00:33:42;8.43;;;5.80;;
39078;SDS011;24829;49.208;12.080;2023-08-24T00:36:08;10.18;;;6.22;;
39078;SDS011;24829;49.208;12.080;2023-08-24T00:38:34;8.00;;;5.25;;
39078;SDS011;24829;49.208;12.080;2023-08-24T00:41:00;9.98;;;5.40;;
39078;SDS011;24829;49.208;12.080;2023-08-24T00:43:26;7.80;;;5.85;;
39078;SDS011;24829;49.208;12.080;2023-08-24T00:45:52;11.25;;;6.05;;
39078;SDS011;24829;49.208;12.080;2023-08-24T00:48:20;6.68;;;5.05;;
39078;SDS011;24829;49.208;12.080;2023-08-24T00:50:50;8.48;;;6.05;;
39078;SDS011;24829;49.208;12.080;2023-08-24T00:53:17;8.75;;;5.82;;
39078;SDS011;24829;49.208;12.080;2023-08-24T00:55:44;7.30;;;5.65;;
39078;SDS011;24829;49.208;12.080;2023-08-24T00:58:09;13.43;;;5.95;;
39078;SDS011;24829;49.208;12.080;2023-08-24T01:00:35;6.65;;;5.60;;
39078;SDS011;24829;49.208;12.080;2023-08-24T01:03:02;6.63;;;5.80;;
39078;SDS011;24829;49.208;12.080;2023-08-24T01:05:28;9.85;;;5.88;;
39078;SDS011;24829;49.208;12.080;2023-08-24T01:07:54;8.40;;;5.70;;
39078;SDS011;24829;49.208;12.080;2023-08-24T01:10:20;9.15;;;5.97;;
39078;SDS011;24829;49.208;12.080;2023-08-24T01:15:38;10.23;;;5.75;;
39078;SDS011;24829;49.208;12.080;2023-08-24T01:18:20;12.20;;;5.88;;
39078;SDS011;24829;49.208;12.080;2023-08-24T01:20:51;6.45;;;5.45;;
39078;SDS011;24829;49.208;12.080;2023-08-24T01:23:23;7.97;;;6.30;;
39078;SDS011;24829;49.208;12.080;2023-08-24T01:28:33;10.23;;;6.05;;
39078;SDS011;24829;49.208;12.080;2023-08-24T01:30:58;11.40;;;6.32;;
39078;SDS011;24829;49.208;12.080;2023-08-24T01:33:24;12.18;;;6.03;;
39078;SDS011;24829;49.208;12.080;2023-08-24T01:35:50;9.05;;;5.53;;
39078;SDS011;24829;49.208;12.080;2023-08-24T01:38:16;13.32;;;7.03;;
39078;SDS011;24829;49.208;12.080;2023-08-24T01:40:47;9.43;;;6.25;;
39078;SDS011;24829;49.208;12.080;2023-08-24T01:43:16;10.55;;;5.85;;
39078;SDS011;24829;49.208;12.080;2023-08-24T01:45:45;13.30;;;6.93;;
39078;SDS011;24829;49.208;12.080;2023-08-24T01:48:12;13.32;;;5.90;;
39078;SDS011;24829;49.208;12.080;2023-08-24T01:50:38;11.80;;;6.55;;
39078;SDS011;24829;49.208;12.080;2023-08-24T01:53:05;9.82;;;5.57;;
39078;SDS011;24829;49.208;12.080;2023-08-24T01:55:31;10.30;;;6.07;;
39078;SDS011;24829;49.208;12.080;2023-08-24T01:57:56;12.35;;;6.45;;
39078;SDS011;24829;49.208;12.080;2023-08-24T02:00:22;9.88;;;6.95;;
39078;SDS011;24829;49.208;12.080;2023-08-24T02:02:48;9.68;;;6.10;;
39078;SDS011;24829;49.208;12.080;2023-08-24T02:05:14;6.07;;;5.20;;
39078;SDS011;24829;49.208;12.080;2023-08-24T02:07:40;19.33;;;6.32;;
39078;SDS011;24829;49.208;12.080;2023-08-24T02:10:06;10.75;;;5.95;;
39078;SDS011;24829;49.208;12.080;2023-08-24T02:12:31;6.80;;;5.70;;
39078;SDS011;24829;49.208;12.080;2023-08-24T02:14:57;7.07;;;5.93;;
39078;SDS011;24829;49.208;12.080;2023-08-24T02:17:23;9.07;;;5.82;;
39078;SDS011;24829;49.208;12.080;2023-08-24T02:19:48;9.32;;;5.97;;
39078;SDS011;24829;49.208;12.080;2023-08-24T02:22:14;7.78;;;6.32;;
39078;SDS011;24829;49.208;12.080;2023-08-24T02:24:40;9.32;;;5.95;;
39078;SDS011;24829;49.208;12.080;2023-08-24T02:27:05;7.70;;;5.45;;
39078;SDS011;24829;49.208;12.080;2023-08-24T02:29:31;11.27;;;5.72;;
39078;SDS011;24829;49.208;12.080;2023-08-24T02:31:56;10.57;;;5.95;;
39078;SDS011;24829;49.208;12.080;2023-08-24T02:34:22;10.73;;;6.63;;
39078;SDS011;24829;49.208;12.080;2023-08-24T02:36:47;7.07;;;5.20;;
39078;SDS011;24829;49.208;12.080;2023-08-24T02:39:13;7.32;;;5.88;;
39078;SDS011;24829;49.208;12.080;2023-08-24T02:41:38;7.65;;;5.70;;
39078;SDS011;24829;49.208;12.080;2023-08-24T02:44:04;7.07;;;6.07;;
39078;SDS011;24829;49.208;12.080;2023-08-24T02:46:30;7.65;;;6.05;;
39078;SDS011;24829;49.208;12.080;2023-08-24T02:48:56;8.88;;;5.95;;
39078;SDS011;24829;49.208;12.080;2023-08-24T02:51:22;10.48;;;6.57;;
39078;SDS011;24829;49.208;12.080;2023-08-24T02:53:48;9.80;;;5.25;;
39078;SDS011;24829;49.208;12.080;2023-08-24T02:56:13;6.80;;;5.32;;
39078;SDS011;24829;49.208;12.080;2023-08-24T02:58:39;8.23;;;6.25;;
39078;SDS011;24829;49.208;12.080;2023-08-24T03:01:08;6.70;;;5.68;;
39078;SDS011;24829;49.208;12.080;2023-08-24T03:03:34;12.02;;;6.80;;
39078;SDS011;24829;49.208;12.080;2023-08-24T03:06:02;14.02;;;6.47;;
39078;SDS011;24829;49.208;12.080;2023-08-24T03:08:30;8.80;;;6.47;;
39078;SDS011;24829;49.208;12.080;2023-08-24T03:10:56;12.40;;;6.50;;
39078;SDS011;24829;49.208;12.080;2023-08-24T03:13:23;9.90;;;6.10;;
39078;SDS011;24829;49.208;12.080;2023-08-24T03:15:48;11.02;;;6.28;;
39078;SDS011;24829;49.208;12.080;2023-08-24T03:18:15;7.97;;;6.60;;
39078;SDS011;24829;49.208;12.080;2023-08-24T03:20:41;7.90;;;6.85;;
39078;SDS011;24829;49.208;12.080;2023-08-24T03:23:08;11.15;;;6.40;;
39078;SDS011;24829;49.208;12.080;2023-08-24T03:25:37;9.50;;;6.13;;
39078;SDS011;24829;49.208;12.080;2023-08-24T03:28:04;12.77;;;6.43;;
39078;SDS011;24829;49.208;12.080;2023-08-24T03:30:32;8.95;;;6.22;;
39078;SDS011;24829;49.208;12.080;2023-08-24T03:32:58;12.05;;;6.95;;
39078;SDS011;24829;49.208;12.080;2023-08-24T03:35:24;6.53;;;5.88;;
39078;SDS011;24829;49.208;12.080;2023-08-24T03:37:50;11.15;;;5.90;;
39078;SDS011;24829;49.208;12.080;2023-08-24T03:40:16;7.63;;;5.93;;
39078;SDS011;24829;49.208;12.080;2023-08-24T03:42:41;9.45;;;6.38;;
39078;SDS011;24829;49.208;12.080;2023-08-24T03:45:07;8.93;;;6.72;;
39078;SDS011;24829;49.208;12.080;2023-08-24T03:47:33;9.55;;;5.82;;
39078;SDS011;24829;49.208;12.080;2023-08-24T03:49:59;8.38;;;6.50;;
39078;SDS011;24829;49.208;12.080;2023-08-24T03:52:25;10.45;;;7.20;;
39078;SDS011;24829;49.208;12.080;2023-08-24T03:54:50;12.05;;;7.05;;
39078;SDS011;24829;49.208;12.080;2023-08-24T03:57:16;8.73;;;7.13;;
39078;SDS011;24829;49.208;12.080;2023-08-24T03:59:41;8.82;;;6.75;;
39078;SDS011;24829;49.208;12.080;2023-08-24T04:02:07;11.02;;;7.65;;
39078;SDS011;24829;49.208;12.080;2023-08-24T04:04:32;9.65;;;7.43;;
39078;SDS011;24829;49.208;12.080;2023-08-24T04:06:58;11.43;;;7.25;;
39078;SDS011;24829;49.208;12.080;2023-08-24T04:09:24;9.35;;;7.88;;
39078;SDS011;24829;49.208;12.080;2023-08-24T04:11:49;9.55;;;7.13;;
39078;SDS011;24829;49.208;12.080;2023-08-24T04:14:15;12.57;;;6.93;;
39078;SDS011;24829;49.208;12.080;2023-08-24T04:16:41;11.32;;;7.18;;
39078;SDS011;24829;49.208;12.080;2023-08-24T04:19:07;12.45;;;7.50;;
39078;SDS011;24829;49.208;12.080;2023-08-24T04:21:33;9.60;;;6.85;;
39078;SDS011;24829;49.208;12.080;2023-08-24T04:23:58;10.75;;;6.18;;
39078;SDS011;24829;49.208;12.080;2023-08-24T04:26:24;8.95;;;6.55;;
39078;SDS011;24829;49.208;12.080;2023-08-24T04:28:50;9.32;;;6.40;;
39078;SDS011;24829;49.208;12.080;2023-08-24T04:31:15;8.27;;;6.85;;
39078;SDS011;24829;49.208;12.080;2023-08-24T04:33:41;7.57;;;6.40;;
39078;SDS011;24829;49.208;12.080;2023-08-24T04:36:07;7.18;;;6.32;;
39078;SDS011;24829;49.208;12.080;2023-08-24T04:38:32;12.88;;;6.72;;
39078;SDS011;24829;49.208;12.080;2023-08-24T04:40:58;10.00;;;5.88;;
39078;SDS011;24829;49.208;12.080;2023-08-24T04:43:24;8.43;;;6.72;;
39078;SDS011;24829;49.208;12.080;2023-08-24T04:45:50;8.38;;;5.97;;
39078;SDS011;24829;49.208;12.080;2023-08-24T04:48:18;11.00;;;7.38;;
39078;SDS011;24829;49.208;12.080;2023-08-24T04:50:47;7.00;;;6.30;;
39078;SDS011;24829;49.208;12.080;2023-08-24T04:53:15;10.80;;;6.43;;
39078;SDS011;24829;49.208;12.080;2023-08-24T04:55:44;9.50;;;6.03;;
39078;SDS011;24829;49.208;12.080;2023-08-24T04:58:10;9.48;;;6.45;;
39078;SDS011;24829;49.208;12.080;2023-08-24T05:00:39;10.20;;;6.15;;
39078;SDS011;24829;49.208;12.080;2023-08-24T05:03:05;9.90;;;7.03;;
39078;SDS011;24829;49.208;12.080;2023-08-24T05:05:32;9.02;;;6.80;;
39078;SDS011;24829;49.208;12.080;2023-08-24T05:07:59;8.70;;;6.72;;
39078;SDS011;24829;49.208;12.080;2023-08-24T05:10:29;10.93;;;6.20;;
39078;SDS011;24829;49.208;12.080;2023-08-24T05:12:55;13.77;;;6.25;;
39078;SDS011;24829;49.208;12.080;2023-08-24T05:15:21;11.52;;;5.55;;
39078;SDS011;24829;49.208;12.080;2023-08-24T05:17:46;7.18;;;6.13;;
39078;SDS011;24829;49.208;12.080;2023-08-24T05:20:12;7.70;;;5.40;;
39078;SDS011;24829;49.208;12.080;2023-08-24T05:22:38;9.18;;;6.28;;
39078;SDS011;24829;49.208;12.080;2023-08-24T05:25:04;10.65;;;5.75;;
39078;SDS011;24829;49.208;12.080;2023-08-24T05:27:30;8.90;;;6.38;;
39078;SDS011;24829;49.208;12.080;2023-08-24T05:29:56;6.43;;;5.82;;
39078;SDS011;24829;49.208;12.080;2023-08-24T05:32:22;8.52;;;6.43;;
39078;SDS011;24829;49.208;12.080;2023-08-24T05:34:48;10.43;;;6.53;;
39078;SDS011;24829;49.208;12.080;2023-08-24T05:37:13;10.30;;;6.00;;
39078;SDS011;24829;49.208;12.080;2023-08-24T05:39:39;12.40;;;6.20;;
39078;SDS011;24829;49.208;12.080;2023-08-24T05:42:05;9.00;;;6.10;;
39078;SDS011;24829;49.208;12.080;2023-08-24T05:44:31;7.72;;;5.53;;
39078;SDS011;24829;49.208;12.080;2023-08-24T05:46:56;7.18;;;6.40;;
39078;SDS011;24829;49.208;12.080;2023-08-24T05:49:22;7.45;;;5.82;;
39078;SDS011;24829;49.208;12.080;2023-08-24T05:51:49;8.73;;;6.18;;
39078;SDS011;24829;49.208;12.080;2023-08-24T05:54:15;13.55;;;6.57;;
39078;SDS011;24829;49.208;12.080;2023-08-24T05:56:43;10.63;;;7.47;;
39078;SDS011;24829;49.208;12.080;2023-08-24T05:59:09;13.23;;;8.25;;
39078;SDS011;24829;49.208;12.080;2023-08-24T06:01:35;13.70;;;8.02;;
39078;SDS011;24829;49.208;12.080;2023-08-24T06:04:03;10.45;;;7.50;;
39078;SDS011;24829;49.208;12.080;2023-08-24T06:06:29;12.07;;;7.90;;
39078;SDS011;24829;49.208;12.080;2023-08-24T06:08:55;10.57;;;7.90;;
39078;SDS011;24829;49.208;12.080;2023-08-24T06:11:21;10.73;;;7.38;;
39078;SDS011;24829;49.208;12.080;2023-08-24T06:13:46;7.95;;;7.15;;
39078;SDS011;24829;49.208;12.080;2023-08-24T06:16:12;12.43;;;7.55;;
39078;SDS011;24829;49.208;12.080;2023-08-24T06:18:37;10.45;;;6.90;;
39078;SDS011;24829;49.208;12.080;2023-08-24T06:21:03;14.93;;;8.18;;
39078;SDS011;24829;49.208;12.080;2023-08-24T06:23:28;12.60;;;8.07;;
39078;SDS011;24829;49.208;12.080;2023-08-24T06:25:54;13.68;;;7.53;;
39078;SDS011;24829;49.208;12.080;2023-08-24T06:28:19;10.43;;;6.68;;
39078;SDS011;24829;49.208;12.080;2023-08-24T06:30:45;11.02;;;7.18;;
39078;SDS011;24829;49.208;12.080;2023-08-24T06:33:12;9.50;;;6.55;;
39078;SDS011;24829;49.208;12.080;2023-08-24T06:35:38;11.88;;;6.60;;
39078;SDS011;24829;49.208;12.080;2023-08-24T06:38:04;8.23;;;6.90;;
39078;SDS011;24829;49.208;12.080;2023-08-24T06:40:30;10.68;;;5.82;;
39078;SDS011;24829;49.208;12.080;2023-08-24T06:42:56;8.75;;;5.78;;
39078;SDS011;24829;49.208;12.080;2023-08-24T06:45:22;8.38;;;5.53;;
39078;SDS011;24829;49.208;12.080;2023-08-24T06:47:48;8.20;;;5.45;;
39078;SDS011;24829;49.208;12.080;2023-08-24T06:50:14;7.45;;;5.72;;
39078;SDS011;24829;49.208;12.080;2023-08-24T06:52:40;10.98;;;5.78;;
39078;SDS011;24829;49.208;12.080;2023-08-24T06:55:07;6.93;;;4.63;;
39078;SDS011;24829;49.208;12.080;2023-08-24T06:57:35;7.47;;;4.75;;
39078;SDS011;24829;49.208;12.080;2023-08-24T07:00:00;10.35;;;5.10;;
39078;SDS011;24829;49.208;12.080;2023-08-24T07:02:26;5.38;;;4.28;;
39078;SDS011;24829;49.208;12.080;2023-08-24T07:04:51;5.63;;;4.25;;
39078;SDS011;24829;49.208;12.080;2023-08-24T07:07:17;5.07;;;4.50;;
39078;SDS011;24829;49.208;12.080;2023-08-24T07:09:43;6.10;;;4.68;;
39078;SDS011;24829;49.208;12.080;2023-08-24T07:12:08;6.78;;;4.88;;
39078;SDS011;24829;49.208;12.080;2023-08-24T07:14:35;6.18;;;4.55;;
39078;SDS011;24829;49.208;12.080;2023-08-24T07:17:01;10.32;;;4.90;;
39078;SDS011;24829;49.208;12.080;2023-08-24T07:19:28;8.00;;;4.72;;
39078;SDS011;24829;49.208;12.080;2023-08-24T07:21:53;10.45;;;4.07;;
39078;SDS011;24829;49.208;12.080;2023-08-24T07:24:19;8.18;;;4.03;;
39078;SDS011;24829;49.208;12.080;2023-08-24T07:26:45;35.67;;;4.95;;
39078;SDS011;24829;49.208;12.080;2023-08-24T07:29:11;22.73;;;4.40;;
39078;SDS011;24829;49.208;12.080;2023-08-24T07:31:37;32.63;;;4.70;;
39078;SDS011;24829;49.208;12.080;2023-08-24T07:34:03;18.15;;;4.60;;
39078;SDS011;24829;49.208;12.080;2023-08-24T07:36:30;19.38;;;4.75;;
39078;SDS011;24829;49.208;12.080;2023-08-24T07:38:56;22.27;;;5.10;;
39078;SDS011;24829;49.208;12.080;2023-08-24T07:41:21;24.20;;;4.75;;
39078;SDS011;24829;49.208;12.080;2023-08-24T07:43:47;19.20;;;5.03;;
39078;SDS011;24829;49.208;12.080;2023-08-24T07:46:13;31.85;;;5.80;;
39078;SDS011;24829;49.208;12.080;2023-08-24T07:48:38;12.73;;;4.28;;
39078;SDS011;24829;49.208;12.080;2023-08-24T07:51:04;20.65;;;4.43;;
39078;SDS011;24829;49.208;12.080;2023-08-24T07:53:30;14.27;;;4.32;;
39078;SDS011;24829;49.208;12.080;2023-08-24T07:55:57;9.38;;;3.63;;
39078;SDS011;24829;49.208;12.080;2023-08-24T07:58:23;11.25;;;3.35;;
39078;SDS011;24829;49.208;12.080;2023-08-24T08:00:50;8.55;;;3.83;;
39078;SDS011;24829;49.208;12.080;2023-08-24T08:03:17;8.13;;;3.97;;
39078;SDS011;24829;49.208;12.080;2023-08-24T08:05:43;16.67;;;4.22;;
39078;SDS011;24829;49.208;12.080;2023-08-24T08:08:09;14.77;;;3.40;;
39078;SDS011;24829;49.208;12.080;2023-08-24T08:10:34;10.57;;;3.22;;
39078;SDS011;24829;49.208;12.080;2023-08-24T08:13:00;7.60;;;3.17;;
39078;SDS011;24829;49.208;12.080;2023-08-24T08:15:25;12.93;;;3.72;;
39078;SDS011;24829;49.208;12.080;2023-08-24T08:17:51;7.82;;;3.03;;
39078;SDS011;24829;49.208;12.080;2023-08-24T08:20:17;4.10;;;3.20;;
39078;SDS011;24829;49.208;12.080;2023-08-24T08:22:44;6.72;;;3.65;;
39078;SDS011;24829;49.208;12.080;2023-08-24T08:25:09;4.43;;;3.63;;
39078;SDS011;24829;49.208;12.080;2023-08-24T08:27:37;6.68;;;3.65;;
39078;SDS011;24829;49.208;12.080;2023-08-24T08:30:02;5.18;;;3.05;;
39078;SDS011;24829;49.208;12.080;2023-08-24T08:32:30;5.82;;;3.45;;
39078;SDS011;24829;49.208;12.080;2023-08-24T08:34:55;4.13;;;3.00;;
39078;SDS011;24829;49.208;12.080;2023-08-24T08:37:23;6.63;;;3.70;;
39078;SDS011;24829;49.208;12.080;2023-08-24T08:39:49;5.93;;;3.42;;
39078;SDS011;24829;49.208;12.080;2023-08-24T08:42:14;4.90;;;3.28;;
39078;SDS011;24829;49.208;12.080;2023-08-24T08:44:40;9.10;;;3.13;;
39078;SDS011;24829;49.208;12.080;2023-08-24T08:47:08;7.13;;;3.75;;
39078;SDS011;24829;49.208;12.080;2023-08-24T08:49:36;12.23;;;3.65;;
39078;SDS011;24829;49.208;12.080;2023-08-24T08:52:04;4.95;;;3.03;;
39078;SDS011;24829;49.208;12.080;2023-08-24T08:54:30;8.75;;;3.88;;
39078;SDS011;24829;49.208;12.080;2023-08-24T08:56:57;9.38;;;3.78;;
39078;SDS011;24829;49.208;12.080;2023-08-24T08:59:24;6.80;;;3.35;;
39078;SDS011;24829;49.208;12.080;2023-08-24T09:01:55;3.97;;;3.05;;
39078;SDS011;24829;49.208;12.080;2023-08-24T09:04:22;5.60;;;3.47;;
39078;SDS011;24829;49.208;12.080;2023-08-24T09:06:49;6.30;;;2.70;;
39078;SDS011;24829;49.208;12.080;2023-08-24T09:09:15;6.97;;;3.05;;
39078;SDS011;24829;49.208;12.080;2023-08-24T09:11:41;5.18;;;3.40;;
39078;SDS011;24829;49.208;12.080;2023-08-24T09:14:07;7.05;;;3.22;;
39078;SDS011;24829;49.208;12.080;2023-08-24T09:16:33;10.48;;;3.50;;
39078;SDS011;24829;49.208;12.080;2023-08-24T09:18:59;7.60;;;3.15;;
39078;SDS011;24829;49.208;12.080;2023-08-24T09:21:30;4.13;;;2.92;;
39078;SDS011;24829;49.208;12.080;2023-08-24T09:23:56;5.10;;;3.05;;
39078;SDS011;24829;49.208;12.080;2023-08-24T09:26:31;5.85;;;3.20;;
39078;SDS011;24829;49.208;12.080;2023-08-24T09:28:58;6.38;;;3.28;;
39078;SDS011;24829;49.208;12.080;2023-08-24T09:31:37;5.00;;;2.60;;
39078;SDS011;24829;49.208;12.080;2023-08-24T09:34:03;8.18;;;3.70;;
39078;SDS011;24829;49.208;12.080;2023-08-24T09:36:33;10.05;;;3.58;;
39078;SDS011;24829;49.208;12.080;2023-08-24T09:38:59;9.10;;;2.92;;
39078;SDS011;24829;49.208;12.080;2023-08-24T09:41:43;8.65;;;2.95;;
39078;SDS011;24829;49.208;12.080;2023-08-24T09:44:09;5.07;;;2.72;;
39078;SDS011;24829;49.208;12.080;2023-08-24T09:46:35;13.18;;;3.63;;
39078;SDS011;24829;49.208;12.080;2023-08-24T09:49:04;5.22;;;3.08;;
39078;SDS011;24829;49.208;12.080;2023-08-24T09:51:30;6.90;;;2.55;;
39078;SDS011;24829;49.208;12.080;2023-08-24T09:53:58;5.85;;;2.92;;
39078;SDS011;24829;49.208;12.080;2023-08-24T09:56:27;5.80;;;2.70;;
39078;SDS011;24829;49.208;12.080;2023-08-24T09:58:54;5.55;;;2.67;;
39078;SDS011;24829;49.208;12.080;2023-08-24T10:01:20;6.82;;;2.40;;
39078;SDS011;24829;49.208;12.080;2023-08-24T10:03:50;4.38;;;2.70;;
39078;SDS011;24829;49.208;12.080;2023-08-24T10:06:18;8.13;;;2.88;;
39078;SDS011;24829;49.208;12.080;2023-08-24T10:08:47;6.68;;;2.95;;
39078;SDS011;24829;49.208;12.080;2023-08-24T10:11:19;8.30;;;2.72;;
39078;SDS011;24829;49.208;12.080;2023-08-24T10:13:53;4.65;;;2.58;;
39078;SDS011;24829;49.208;12.080;2023-08-24T10:16:27;3.95;;;2.58;;
39078;SDS011;24829;49.208;12.080;2023-08-24T10:18:54;4.05;;;2.83;;
39078;SDS011;24829;49.208;12.080;2023-08-24T10:21:20;4.60;;;2.38;;
39078;SDS011;24829;49.208;12.080;2023-08-24T10:23:50;4.32;;;2.92;;
39078;SDS011;24829;49.208;12.080;2023-08-24T10:26:17;7.28;;;2.67;;
39078;SDS011;24829;49.208;12.080;2023-08-24T10:28:43;6.43;;;2.53;;
39078;SDS011;24829;49.208;12.080;2023-08-24T10:31:10;6.60;;;2.17;;
39078;SDS011;24829;49.208;12.080;2023-08-24T10:33:36;4.70;;;2.03;;
39078;SDS011;24829;49.208;12.080;2023-08-24T10:36:06;4.72;;;1.95;;
39078;SDS011;24829;49.208;12.080;2023-08-24T10:38:35;4.25;;;1.98;;
39078;SDS011;24829;49.208;12.080;2023-08-24T10:41:08;4.90;;;2.40;;
39078;SDS011;24829;49.208;12.080;2023-08-24T10:43:37;4.32;;;1.80;;
39078;SDS011;24829;49.208;12.080;2023-08-24T10:46:03;3.13;;;2.03;;
39078;SDS011;24829;49.208;12.080;2023-08-24T10:53:57;5.47;;;1.90;;
39078;SDS011;24829;49.208;12.080;2023-08-24T10:56:52;7.65;;;2.25;;
39078;SDS011;24829;49.208;12.080;2023-08-24T10:59:17;4.80;;;2.00;;
39078;SDS011;24829;49.208;12.080;2023-08-24T11:01:55;7.85;;;1.90;;
39078;SDS011;24829;49.208;12.080;2023-08-24T11:04:21;3.38;;;2.22;;
39078;SDS011;24829;49.208;12.080;2023-08-24T11:06:59;4.70;;;2.03;;
39078;SDS011;24829;49.208;12.080;2023-08-24T11:09:31;5.15;;;2.30;;
39078;SDS011;24829;49.208;12.080;2023-08-24T11:12:11;6.18;;;2.10;;
39078;SDS011;24829;49.208;12.080;2023-08-24T11:14:48;6.25;;;2.25;;
39078;SDS011;24829;49.208;12.080;2023-08-24T11:17:20;6.10;;;2.10;;
39078;SDS011;24829;49.208;12.080;2023-08-24T11:19:47;5.18;;;2.38;;
39078;SDS011;24829;49.208;12.080;2023-08-24T11:22:14;3.97;;;2.10;;
39078;SDS011;24829;49.208;12.080;2023-08-24T11:24:41;11.93;;;2.22;;
39078;SDS011;24829;49.208;12.080;2023-08-24T11:27:07;8.65;;;2.28;;
39078;SDS011;24829;49.208;12.080;2023-08-24T11:29:34;4.88;;;1.80;;
39078;SDS011;24829;49.208;12.080;2023-08-24T11:31:59;3.83;;;2.42;;
39078;SDS011;24829;49.208;12.080;2023-08-24T11:34:25;4.53;;;2.05;;
39078;SDS011;24829;49.208;12.080;2023-08-24T11:36:51;5.55;;;2.33;;
39078;SDS011;24829;49.208;12.080;2023-08-24T11:39:17;6.25;;;2.40;;
39078;SDS011;24829;49.208;12.080;2023-08-24T11:41:45;5.35;;;2.20;;
39078;SDS011;24829;49.208;12.080;2023-08-24T11:44:23;6.82;;;2.63;;
39078;SDS011;24829;49.208;12.080;2023-08-24T11:46:49;8.80;;;2.42;;
39078;SDS011;24829;49.208;12.080;2023-08-24T11:49:14;4.93;;;2.50;;
39078;SDS011;24829;49.208;12.080;2023-08-24T11:51:40;5.03;;;2.20;;
39078;SDS011;24829;49.208;12.080;2023-08-24T11:54:06;7.97;;;1.90;;
39078;SDS011;24829;49.208;12.080;2023-08-24T11:56:31;7.45;;;2.40;;
39078;SDS011;24829;49.208;12.080;2023-08-24T11:58:57;5.07;;;2.08;;
39078;SDS011;24829;49.208;12.080;2023-08-24T12:01:22;3.25;;;2.15;;
39078;SDS011;24829;49.208;12.080;2023-08-24T12:03:49;6.93;;;2.10;;
39078;SDS011;24829;49.208;12.080;2023-08-24T12:06:15;3.55;;;2.17;;
39078;SDS011;24829;49.208;12.080;2023-08-24T12:08:42;3.97;;;2.10;;
39078;SDS011;24829;49.208;12.080;2023-08-24T12:11:10;4.47;;;2.22;;
39078;SDS011;24829;49.208;12.080;2023-08-24T12:13:37;9.55;;;2.28;;
39078;SDS011;24829;49.208;12.080;2023-08-24T12:16:04;4.60;;;2.20;;
39078;SDS011;24829;49.208;12.080;2023-08-24T12:18:30;7.70;;;2.53;;
39078;SDS011;24829;49.208;12.080;2023-08-24T12:20:56;3.75;;;1.80;;
39078;SDS011;24829;49.208;12.080;2023-08-24T12:23:26;6.57;;;2.38;;
39078;SDS011;24829;49.208;12.080;2023-08-24T12:25:53;13.68;;;2.90;;
39078;SDS011;24829;49.208;12.080;2023-08-24T12:28:20;6.82;;;2.30;;
39078;SDS011;24829;49.208;12.080;2023-08-24T12:30:52;2.80;;;1.85;;
39078;SDS011;24829;49.208;12.080;2023-08-24T12:33:27;5.50;;;2.30;;
39078;SDS011;24829;49.208;12.080;2023-08-24T12:35:55;4.85;;;2.20;;
39078;SDS011;24829;49.208;12.080;2023-08-24T12:38:21;2.80;;;1.90;;
39078;SDS011;24829;49.208;12.080;2023-08-24T12:40:48;9.32;;;2.35;;
39078;SDS011;24829;49.208;12.080;2023-08-24T12:43:14;5.07;;;1.77;;
39078;SDS011;24829;49.208;12.080;2023-08-24T12:45:40;10.00;;;2.42;;
39078;SDS011;24829;49.208;12.080;2023-08-24T12:48:06;3.33;;;1.70;;
39078;SDS011;24829;49.208;12.080;2023-08-24T12:50:35;6.10;;;2.20;;
39078;SDS011;24829;49.208;12.080;2023-08-24T12:53:01;4.72;;;2.30;;
39078;SDS011;24829;49.208;12.080;2023-08-24T12:55:28;7.03;;;2.33;;
39078;SDS011;24829;49.208;12.080;2023-08-24T12:57:54;6.47;;;2.28;;
39078;SDS011;24829;49.208;12.080;2023-08-24T13:00:20;4.43;;;2.25;;
39078;SDS011;24829;49.208;12.080;2023-08-24T13:02:47;7.13;;;2.70;;
39078;SDS011;24829;49.208;12.080;2023-08-24T13:05:13;10.52;;;2.83;;
39078;SDS011;24829;49.208;12.080;2023-08-24T13:07:38;5.20;;;2.00;;
39078;SDS011;24829;49.208;12.080;2023-08-24T13:10:04;6.68;;;2.85;;
39078;SDS011;24829;49.208;12.080;2023-08-24T13:12:31;3.72;;;1.90;;
39078;SDS011;24829;49.208;12.080;2023-08-24T13:14:57;4.55;;;2.08;;
39078;SDS011;24829;49.208;12.080;2023-08-24T13:17:23;7.22;;;2.63;;
39078;SDS011;24829;49.208;12.080;2023-08-24T13:19:49;9.05;;;2.85;;
39078;SDS011;24829;49.208;12.080;2023-08-24T13:22:15;9.23;;;3.10;;
39078;SDS011;24829;49.208;12.080;2023-08-24T13:24:41;7.47;;;2.38;;
39078;SDS011;24829;49.208;12.080;2023-08-24T13:27:08;5.30;;;2.65;;
39078;SDS011;24829;49.208;12.080;2023-08-24T13:29:38;5.65;;;2.30;;
39078;SDS011;24829;49.208;12.080;2023-08-24T13:32:05;4.60;;;2.47;;
39078;SDS011;24829;49.208;12.080;2023-08-24T13:34:30;5.28;;;2.25;;
39078;SDS011;24829;49.208;12.080;2023-08-24T13:36:59;4.63;;;2.40;;
39078;SDS011;24829;49.208;12.080;2023-08-24T13:39:28;6.85;;;2.58;;
39078;SDS011;24829;49.208;12.080;2023-08-24T13:41:55;6.53;;;2.30;;
39078;SDS011;24829;49.208;12.080;2023-08-24T13:44:21;7.45;;;2.50;;
39078;SDS011;24829;49.208;12.080;2023-08-24T13:46:47;7.63;;;2.10;;
39078;SDS011;24829;49.208;12.080;2023-08-24T13:49:12;5.10;;;2.22;;
39078;SDS011;24829;49.208;12.080;2023-08-24T13:51:38;3.90;;;2.15;;
39078;SDS011;24829;49.208;12.080;2023-08-24T13:54:13;4.28;;;2.20;;
39078;SDS011;24829;49.208;12.080;2023-08-24T13:56:40;4.55;;;2.53;;
39078;SDS011;24829;49.208;12.080;2023-08-24T13:59:06;4.05;;;2.17;;
39078;SDS011;24829;49.208;12.080;2023-08-24T14:01:32;5.13;;;2.30;;
39078;SDS011;24829;49.208;12.080;2023-08-24T14:03:58;3.40;;;2.47;;
39078;SDS011;24829;49.208;12.080;2023-08-24T14:06:24;4.32;;;2.20;;
39078;SDS011;24829;49.208;12.080;2023-08-24T14:08:49;5.43;;;2.40;;
39078;SDS011;24829;49.208;12.080;2023-08-24T14:11:15;5.75;;;2.25;;
39078;SDS011;24829;49.208;12.080;2023-08-24T14:13:41;4.90;;;2.15;;
39078;SDS011;24829;49.208;12.080;2023-08-24T14:16:07;5.60;;;2.50;;
39078;SDS011;24829;49.208;12.080;2023-08-24T14:18:32;6.22;;;2.20;;
39078;SDS011;24829;49.208;12.080;2023-08-24T14:21:01;5.30;;;2.83;;
39078;SDS011;24829;49.208;12.080;2023-08-24T14:23:27;11.60;;;2.58;;
39078;SDS011;24829;49.208;12.080;2023-08-24T14:25:52;4.40;;;2.45;;
39078;SDS011;24829;49.208;12.080;2023-08-24T14:28:19;5.38;;;2.10;;
39078;SDS011;24829;49.208;12.080;2023-08-24T14:30:46;3.88;;;2.22;;
39078;SDS011;24829;49.208;12.080;2023-08-24T14:33:12;4.85;;;2.35;;
39078;SDS011;24829;49.208;12.080;2023-08-24T14:35:37;6.75;;;2.38;;
39078;SDS011;24829;49.208;12.080;2023-08-24T14:38:03;6.45;;;2.22;;
39078;SDS011;24829;49.208;12.080;2023-08-24T14:40:28;6.50;;;2.15;;